Time;durP1;ratioP1;P1;durP2;ratioP2;P2;SDS_P1;SDS_P2;PMS_P1;PMS_P2;Temp;Humidity;BMP_temperature;BMP_pressure;BME280_temperature;BME280_humidity;BME280_pressure;Samples;Min_cycle;Max_cycle;Signal;HPM_P1;HPM_P2
2022/05/17 00:01:04;;;;;;;;;;;15.30;99.90;;;;;;6307445;22;19964;-76
2022/05/17 00:03:29;;;;;;;;;;;15.20;99.90;;;;;;6307086;22;19964;-76
2022/05/17 00:05:55;;;;;;;;;;;15.20;99.90;;;;;;6306754;22;19918;-78
2022/05/17 00:08:20;;;;;;;;;;;15.20;99.90;;;;;;6307061;22;19985;-79
2022/05/17 00:10:46;;;;;;;;;;;15.10;99.90;;;;;;6307455;22;20351;-79
2022/05/17 00:13:12;;;;;;;;;;;15.10;99.90;;;;;;6307687;22;19921;-76
2022/05/17 00:15:38;;;;;;;;;;;15.00;99.90;;;;;;6307303;22;20249;-76
2022/05/17 00:18:04;;;;;;;;;;;15.00;99.90;;;;;;6306326;22;20253;-76
2022/05/17 00:20:30;;;;;;;;;;;14.80;99.90;;;;;;6305246;22;19918;-79
2022/05/17 00:22:55;;;;;;;;;;;14.90;99.90;;;;;;6307525;22;19969;-76
2022/05/17 00:25:22;;;;;;;;;;;14.80;99.90;;;;;;6307448;22;19961;-75
2022/05/17 00:27:47;;;;;;;;;;;14.80;99.90;;;;;;6307355;22;20248;-73
2022/05/17 00:30:14;;;;;;;;;;;14.70;99.90;;;;;;6307069;22;19915;-76
2022/05/17 00:32:39;;;;;;;;;;;14.70;99.90;;;;;;6307505;22;19946;-76
2022/05/17 00:35:05;;;;;;;;;;;14.70;99.90;;;;;;6307039;22;19919;-78
2022/05/17 00:37:31;;;;;;;;;;;14.60;99.90;;;;;;6305871;22;19939;-77
2022/05/17 00:39:56;;;;;;;;;;;14.60;99.90;;;;;;6307133;22;19922;-78
2022/05/17 00:42:22;;;;;;;;;;;14.60;99.90;;;;;;6306042;22;19922;-77
2022/05/17 00:44:47;;;;;;;;;;;14.50;99.90;;;;;;6306456;22;19915;-77
2022/05/17 00:47:25;;;;;;;;;;;14.60;99.90;;;;;;6307111;22;20222;-79
2022/05/17 00:49:57;;;;;;;;;;;14.30;99.90;;;;;;6306536;22;19985;-77
2022/05/17 00:52:44;;;;;;;;;;;14.40;99.90;;;;;;6280891;22;19915;-77
2022/05/17 00:55:12;;;;;;;;;;;14.40;99.90;;;;;;6306180;22;19915;-76
2022/05/17 00:57:37;;;;;;;;;;;14.40;99.90;;;;;;6306874;22;19922;-78
2022/05/17 01:00:05;;;;;;;;;;;14.40;99.90;;;;;;6307040;22;20249;-76
2022/05/17 01:02:31;;;;;;;;;;;14.30;99.90;;;;;;6306942;22;19996;-79
2022/05/17 01:04:57;;;;;;;;;;;14.30;99.90;;;;;;6309955;22;19919;-76
2022/05/17 01:07:24;;;;;;;;;;;14.20;99.90;;;;;;6312946;22;19921;-79
2022/05/17 01:09:49;;;;;;;;;;;14.20;99.90;;;;;;6311223;22;19949;-77
2022/05/17 01:12:15;;;;;;;;;;;14.30;99.90;;;;;;6306593;22;19918;-76
2022/05/17 01:15:00;;;;;;;;;;;14.40;99.90;;;;;;6306647;22;19960;-74
2022/05/17 01:17:27;;;;;;;;;;;14.20;99.90;;;;;;6305320;22;19919;-76
2022/05/17 01:19:53;;;;;;;;;;;14.10;99.90;;;;;;6306758;22;19921;-76
2022/05/17 01:22:19;;;;;;;;;;;14.10;99.90;;;;;;6306250;22;19915;-76
2022/05/17 01:24:44;;;;;;;;;;;14.20;99.90;;;;;;6306305;22;20329;-76
2022/05/17 01:27:13;;;;;;;;;;;14.10;99.90;;;;;;6308056;22;19914;-76
2022/05/17 01:29:40;;;;;;;;;;;14.10;99.90;;;;;;6306619;22;19921;-76
2022/05/17 01:32:06;;;;;;;;;;;14.00;99.90;;;;;;6306331;22;19993;-76
2022/05/17 01:34:33;;;;;;;;;;;14.10;99.90;;;;;;6306430;22;19915;-76
2022/05/17 01:36:59;;;;;;;;;;;14.50;99.90;;;;;;6306588;22;19953;-76
2022/05/17 01:39:24;;;;;;;;;;;14.10;99.90;;;;;;6305815;22;19915;-75
2022/05/17 01:41:50;;;;;;;;;;;14.00;99.90;;;;;;6306330;22;19960;-76
2022/05/17 01:44:15;;;;;;;;;;;14.00;99.90;;;;;;6307855;22;19925;-76
2022/05/17 01:46:41;;;;;;;;;;;13.90;99.90;;;;;;6306057;22;19973;-76
2022/05/17 01:49:06;;;;;;;;;;;14.00;99.90;;;;;;6306259;22;19915;-76
2022/05/17 01:51:32;;;;;;;;;;;14.10;99.90;;;;;;6306464;22;19914;-76
2022/05/17 01:53:57;;;;;;;;;;;13.90;99.90;;;;;;6305723;22;20236;-76
2022/05/17 01:56:23;;;;;;;;;;;13.90;99.90;;;;;;6305987;22;19922;-76
2022/05/17 01:58:49;;;;;;;;;;;13.90;99.90;;;;;;6306344;22;19998;-75
2022/05/17 02:01:14;;;;;;;;;;;13.90;99.90;;;;;;6306177;22;19918;-76
2022/05/17 02:03:40;;;;;;;;;;;14.10;99.90;;;;;;6280562;22;19919;-76
2022/05/17 02:06:06;;;;;;;;;;;13.80;99.90;;;;;;6306148;22;19923;-76
2022/05/17 02:08:31;;;;;;;;;;;13.80;99.90;;;;;;6306171;22;19919;-76
2022/05/17 02:10:57;;;;;;;;;;;14.20;99.90;;;;;;6303192;22;19915;-76
2022/05/17 02:13:25;;;;;;;;;;;13.70;99.90;;;;;;6307006;22;20329;-76
2022/05/17 02:15:54;;;;;;;;;;;13.70;99.90;;;;;;6305433;22;19989;-76
2022/05/17 02:18:20;;;;;;;;;;;13.70;99.90;;;;;;6304809;22;19914;-76
2022/05/17 02:20:50;;;;;;;;;;;13.90;99.90;;;;;;6305407;22;20334;-76
2022/05/17 02:23:16;;;;;;;;;;;14.00;99.90;;;;;;6307515;22;19915;-77
2022/05/17 02:25:53;;;;;;;;;;;13.60;99.90;;;;;;6305337;22;19937;-76
2022/05/17 02:28:22;;;;;;;;;;;13.70;99.90;;;;;;6305518;22;19937;-76
2022/05/17 02:30:48;;;;;;;;;;;13.70;99.90;;;;;;6279367;22;19946;-76
2022/05/17 02:33:13;;;;;;;;;;;13.50;99.90;;;;;;6305527;22;19940;-75
2022/05/17 02:35:39;;;;;;;;;;;13.30;99.90;;;;;;6305373;22;20348;-75
2022/05/17 02:38:05;;;;;;;;;;;13.40;99.90;;;;;;6305890;22;19929;-76
2022/05/17 02:40:31;;;;;;;;;;;13.40;99.90;;;;;;6305344;22;19915;-76
2022/05/17 02:42:59;;;;;;;;;;;13.40;99.90;;;;;;6305246;22;19922;-76
2022/05/17 02:45:25;;;;;;;;;;;13.40;99.90;;;;;;6305122;22;20326;-75
2022/05/17 02:47:52;;;;;;;;;;;13.30;99.90;;;;;;6305772;22;19915;-75
2022/05/17 02:50:18;;;;;;;;;;;13.30;99.90;;;;;;6305865;22;19915;-75
2022/05/17 02:52:43;;;;;;;;;;;13.20;99.90;;;;;;6305994;22;20009;-76
2022/05/17 02:55:09;;;;;;;;;;;13.20;99.90;;;;;;6305983;22;19924;-76
2022/05/17 02:57:35;;;;;;;;;;;13.20;99.90;;;;;;6305272;22;19926;-76
2022/05/17 03:00:01;;;;;;;;;;;13.50;99.90;;;;;;6280060;22;20279;-76
2022/05/17 03:02:27;;;;;;;;;;;13.20;99.90;;;;;;6305890;22;19915;-74
2022/05/17 03:04:52;;;;;;;;;;;13.10;99.90;;;;;;6279902;22;19918;-76
2022/05/17 03:07:18;;;;;;;;;;;13.10;99.90;;;;;;6307678;22;19921;-75
2022/05/17 03:09:44;;;;;;;;;;;13.50;99.90;;;;;;6308211;22;19921;-76
2022/05/17 03:12:10;;;;;;;;;;;13.10;99.90;;;;;;6308065;22;20218;-76
2022/05/17 03:14:38;;;;;;;;;;;13.10;99.90;;;;;;6308783;22;20325;-76
2022/05/17 03:17:14;;;;;;;;;;;13.10;99.90;;;;;;6308050;22;19987;-74
2022/05/17 03:19:40;;;;;;;;;;;13.10;99.90;;;;;;6307788;22;19915;-75
2022/05/17 03:22:06;;;;;;;;;;;13.10;99.90;;;;;;6307645;22;19926;-75
2022/05/17 03:24:31;;;;;;;;;;;13.10;99.90;;;;;;6307799;22;19915;-76
2022/05/17 03:26:57;;;;;;;;;;;13.10;99.90;;;;;;6307494;22;19915;-76
2022/05/17 03:29:23;;;;;;;;;;;13.10;99.90;;;;;;6306764;22;20248;-75
2022/05/17 03:31:49;;;;;;;;;;;13.30;99.90;;;;;;6281632;22;20244;-77
2022/05/17 03:34:14;;;;;;;;;;;13.10;99.90;;;;;;6307604;22;19985;-76
2022/05/17 03:36:40;;;;;;;;;;;13.00;99.90;;;;;;6307652;22;19915;-76
2022/05/17 03:39:05;;;;;;;;;;;13.00;99.90;;;;;;6307483;22;19923;-76
2022/05/17 03:41:31;;;;;;;;;;;13.20;99.90;;;;;;6307492;22;19944;-75
2022/05/17 03:43:56;;;;;;;;;;;13.10;99.90;;;;;;6306701;22;19921;-76
2022/05/17 03:46:22;;;;;;;;;;;13.40;99.90;;;;;;6306907;22;20299;-75
2022/05/17 03:48:47;;;;;;;;;;;13.10;99.90;;;;;;6308993;22;20332;-74
2022/05/17 03:51:15;;;;;;;;;;;12.90;99.90;;;;;;6307274;22;19985;-75
2022/05/17 03:53:41;;;;;;;;;;;12.90;99.90;;;;;;6307451;22;19915;-75
2022/05/17 03:56:06;;;;;;;;;;;12.90;99.90;;;;;;6307434;22;19976;-74
2022/05/17 03:58:32;;;;;;;;;;;12.90;99.90;;;;;;6307282;22;19915;-75
2022/05/17 04:00:58;;;;;;;;;;;12.90;99.90;;;;;;6280538;22;19959;-75
2022/05/17 04:03:23;;;;;;;;;;;12.80;99.90;;;;;;6308669;22;19997;-75
2022/05/17 04:05:49;;;;;;;;;;;12.80;99.90;;;;;;6308698;22;19915;-76
2022/05/17 04:08:17;;;;;;;;;;;13.20;99.90;;;;;;6307514;22;19919;-77
2022/05/17 04:10:43;;;;;;;;;;;12.80;99.90;;;;;;6307350;22;19915;-76
2022/05/17 04:13:09;;;;;;;;;;;13.00;99.90;;;;;;6307368;22;19915;-76
2022/05/17 04:15:34;;;;;;;;;;;12.80;99.90;;;;;;6306763;22;19914;-77
2022/05/17 04:18:00;;;;;;;;;;;12.80;99.90;;;;;;6306166;22;19964;-75
2022/05/17 04:20:26;;;;;;;;;;;12.90;99.90;;;;;;6307136;22;19918;-73
2022/05/17 04:22:53;;;;;;;;;;;12.80;99.90;;;;;;6307273;22;19915;-76
2022/05/17 04:25:21;;;;;;;;;;;12.90;99.90;;;;;;6307032;22;19919;-76
2022/05/17 04:27:47;;;;;;;;;;;12.90;99.90;;;;;;6307013;22;19922;-76
2022/05/17 04:30:13;;;;;;;;;;;12.90;99.90;;;;;;6307070;22;19918;-75
2022/05/17 04:32:39;;;;;;;;;;;12.90;99.90;;;;;;6306357;22;19967;-76
2022/05/17 04:35:05;;;;;;;;;;;13.20;99.90;;;;;;6307139;22;20006;-75
2022/05/17 04:37:31;;;;;;;;;;;13.00;99.90;;;;;;6306828;22;19950;-75
2022/05/17 04:39:56;;;;;;;;;;;13.60;99.90;;;;;;6306830;22;19980;-76
2022/05/17 04:42:22;;;;;;;;;;;13.10;99.90;;;;;;6306167;22;20218;-75
2022/05/17 04:44:48;;;;;;;;;;;13.10;99.90;;;;;;6306926;22;20025;-76
2022/05/17 04:47:13;;;;;;;;;;;13.10;99.90;;;;;;6305926;22;20372;-76
2022/05/17 04:49:39;;;;;;;;;;;13.10;99.90;;;;;;6306099;22;20351;-76
2022/05/17 04:52:05;;;;;;;;;;;13.20;99.90;;;;;;6306794;22;19936;-76
2022/05/17 04:54:31;;;;;;;;;;;13.20;99.90;;;;;;6306865;22;19915;-76
2022/05/17 04:56:57;;;;;;;;;;;13.30;99.90;;;;;;6308182;22;19946;-74
2022/05/17 04:59:22;;;;;;;;;;;13.20;99.90;;;;;;6308353;22;19987;-76
2022/05/17 05:01:48;;;;;;;;;;;13.50;99.90;;;;;;6280908;22;20355;-75
2022/05/17 05:04:14;;;;;;;;;;;13.60;99.90;;;;;;6306271;22;19915;-75
2022/05/17 05:06:39;;;;;;;;;;;13.80;99.90;;;;;;6305988;22;19914;-74
2022/05/17 05:09:05;;;;;;;;;;;13.70;99.90;;;;;;6306331;22;20291;-75
2022/05/17 05:11:30;;;;;;;;;;;13.80;99.90;;;;;;6306604;22;20218;-75
2022/05/17 05:13:56;;;;;;;;;;;13.90;99.90;;;;;;6280633;22;20024;-75
2022/05/17 05:16:22;;;;;;;;;;;13.90;99.90;;;;;;6306591;22;19911;-75
2022/05/17 05:18:47;;;;;;;;;;;14.30;99.90;;;;;;6306283;22;19915;-76
2022/05/17 05:21:13;;;;;;;;;;;14.20;99.90;;;;;;6280682;22;19915;-76
2022/05/17 05:23:40;;;;;;;;;;;14.60;99.90;;;;;;6306685;22;19945;-76
2022/05/17 05:26:06;;;;;;;;;;;14.30;99.90;;;;;;6306212;22;19926;-76
2022/05/17 05:28:33;;;;;;;;;;;14.70;99.90;;;;;;6306280;22;19915;-76
2022/05/17 05:30:58;;;;;;;;;;;14.50;99.90;;;;;;6307834;22;19921;-75
2022/05/17 05:33:24;;;;;;;;;;;14.60;99.90;;;;;;6306089;22;19915;-73
2022/05/17 05:35:51;;;;;;;;;;;14.70;99.90;;;;;;6306160;22;19958;-75
2022/05/17 05:38:16;;;;;;;;;;;14.80;99.90;;;;;;6306062;22;19915;-73
2022/05/17 05:40:42;;;;;;;;;;;14.90;99.90;;;;;;6306036;22;19922;-75
2022/05/17 05:43:08;;;;;;;;;;;14.90;99.90;;;;;;6306485;22;20216;-75
2022/05/17 05:45:34;;;;;;;;;;;14.90;99.90;;;;;;6305687;22;19926;-75
2022/05/17 05:48:00;;;;;;;;;;;15.00;99.90;;;;;;6306197;22;19976;-76
2022/05/17 05:50:25;;;;;;;;;;;15.00;99.90;;;;;;6305791;22;19922;-75
2022/05/17 05:52:51;;;;;;;;;;;15.00;99.90;;;;;;6305590;22;20283;-76
2022/05/17 05:55:24;;;;;;;;;;;14.90;99.90;;;;;;6306306;22;20214;-75
2022/05/17 05:57:50;;;;;;;;;;;14.90;99.90;;;;;;6306237;22;19915;-75
2022/05/17 06:00:17;;;;;;;;;;;15.10;99.90;;;;;;6306252;22;20337;-75
2022/05/17 06:02:42;;;;;;;;;;;14.80;99.90;;;;;;6306065;22;19915;-74
2022/05/17 06:05:08;;;;;;;;;;;15.20;99.90;;;;;;6307471;22;20324;-75
2022/05/17 06:07:35;;;;;;;;;;;14.90;99.90;;;;;;6279469;22;19918;-79
2022/05/17 06:10:02;;;;;;;;;;;14.90;99.90;;;;;;6306190;22;20340;-74
2022/05/17 06:12:28;;;;;;;;;;;15.10;99.90;;;;;;6307621;22;19922;-75
2022/05/17 06:14:53;;;;;;;;;;;15.10;99.90;;;;;;6305774;22;20230;-75
2022/05/17 06:17:23;;;;;;;;;;;15.10;99.90;;;;;;6305617;22;19914;-72
2022/05/17 06:19:49;;;;;;;;;;;15.20;99.90;;;;;;6307742;22;19915;-74
2022/05/17 06:22:15;;;;;;;;;;;15.60;99.90;;;;;;6304776;22;20063;-75
2022/05/17 06:24:41;;;;;;;;;;;15.40;99.90;;;;;;6305661;22;19915;-75
2022/05/17 06:27:07;;;;;;;;;;;15.40;99.90;;;;;;6307443;22;20757;-74
2022/05/17 06:29:33;;;;;;;;;;;15.50;99.90;;;;;;6305802;22;19914;-75
2022/05/17 06:31:58;;;;;;;;;;;15.50;99.90;;;;;;6302943;22;20278;-80
2022/05/17 06:34:25;;;;;;;;;;;15.70;99.90;;;;;;6304994;22;20360;-78
2022/05/17 06:36:51;;;;;;;;;;;15.60;99.90;;;;;;6303837;22;19922;-77
2022/05/17 06:39:16;;;;;;;;;;;15.60;99.90;;;;;;6277330;22;20244;-79
2022/05/17 06:41:43;;;;;;;;;;;15.70;99.90;;;;;;6277967;22;19915;-79
2022/05/17 06:44:08;;;;;;;;;;;15.70;99.90;;;;;;6306164;22;19915;-82
2022/05/17 06:46:34;;;;;;;;;;;15.80;99.90;;;;;;6306802;22;19922;-81
2022/05/17 06:48:59;;;;;;;;;;;15.90;99.90;;;;;;6306428;22;19926;-79
2022/05/17 06:51:25;;;;;;;;;;;15.90;99.90;;;;;;6306606;22;20224;-78
2022/05/17 06:53:51;;;;;;;;;;;16.00;99.90;;;;;;6305175;22;20217;-79
2022/05/17 06:56:16;;;;;;;;;;;16.20;99.90;;;;;;6304283;22;19914;-82
2022/05/17 06:58:42;;;;;;;;;;;16.20;99.90;;;;;;6304346;22;19915;-80
2022/05/17 07:01:08;;;;;;;;;;;16.40;99.90;;;;;;6305074;22;19963;-79
2022/05/17 07:03:33;;;;;;;;;;;16.40;99.90;;;;;;6306019;22;19930;-77
2022/05/17 07:05:59;;;;;;;;;;;16.60;99.90;;;;;;6305954;22;19918;-78
2022/05/17 07:08:25;;;;;;;;;;;16.70;99.90;;;;;;6304068;22;19919;-74
2022/05/17 07:13:47;;;;;;;;;;;17.00;99.90;;;;;;6305996;22;19996;-75
2022/05/17 07:16:13;;;;;;;;;;;17.00;99.90;;;;;;6278396;22;19989;-75
2022/05/17 07:18:45;;;;;;;;;;;17.10;99.90;;;;;;6279392;22;19957;-74
2022/05/17 07:21:15;;;;;;;;;;;17.10;99.90;;;;;;6305073;22;19919;-75
2022/05/17 07:23:52;;;;;;;;;;;17.30;99.90;;;;;;6305054;22;19957;-74
2022/05/17 07:26:20;;;;;;;;;;;17.40;99.90;;;;;;6279302;22;19919;-75
2022/05/17 07:28:47;;;;;;;;;;;17.50;99.90;;;;;;6304347;22;20317;-75
2022/05/17 07:31:13;;;;;;;;;;;17.60;99.90;;;;;;6304812;22;19993;-74
2022/05/17 07:33:43;;;;;;;;;;;17.70;99.90;;;;;;6304926;22;19992;-75
2022/05/17 07:36:08;;;;;;;;;;;17.90;99.90;;;;;;6279761;22;19977;-73
2022/05/17 07:38:35;;;;;;;;;;;18.00;99.90;;;;;;6305161;22;19923;-76
2022/05/17 07:41:00;;;;;;;;;;;18.10;99.90;;;;;;6306238;22;19921;-75
2022/05/17 07:43:26;;;;;;;;;;;18.10;99.90;;;;;;6306738;22;19954;-70
2022/05/17 07:45:51;;;;;;;;;;;18.20;99.90;;;;;;6306483;22;19918;-73
2022/05/17 07:48:20;;;;;;;;;;;18.20;99.90;;;;;;6306735;22;19914;-71
2022/05/17 07:50:46;;;;;;;;;;;18.20;99.90;;;;;;6279197;22;19930;-76
2022/05/17 07:53:13;;;;;;;;;;;18.40;99.90;;;;;;6280247;22;19918;-84
2022/05/17 07:55:39;;;;;;;;;;;18.40;99.90;;;;;;6305431;22;19914;-75
2022/05/17 07:58:06;;;;;;;;;;;18.80;99.90;;;;;;6303843;22;19965;-74
2022/05/17 08:00:32;;;;;;;;;;;18.60;99.90;;;;;;6304379;22;19915;-71
2022/05/17 08:02:58;;;;;;;;;;;18.80;99.90;;;;;;6307017;22;20324;-74
2022/05/17 08:05:25;;;;;;;;;;;19.00;99.90;;;;;;6307120;22;19919;-72
2022/05/17 08:07:51;;;;;;;;;;;19.10;99.90;;;;;;6307071;22;19960;-74
2022/05/17 08:10:17;;;;;;;;;;;19.20;99.90;;;;;;6307152;22;19986;-74
2022/05/17 08:12:42;;;;;;;;;;;19.30;99.90;;;;;;6306556;22;19919;-73
2022/05/17 08:15:09;;;;;;;;;;;19.30;99.90;;;;;;6278701;22;19915;-77
2022/05/17 08:17:35;;;;;;;;;;;19.30;99.90;;;;;;6307427;22;20073;-74
2022/05/17 08:20:01;;;;;;;;;;;19.40;99.90;;;;;;6307547;22;19918;-72
2022/05/17 08:22:27;;;;;;;;;;;19.60;99.90;;;;;;6307545;22;20254;-81
2022/05/17 08:27:36;;;;;;;;;;;19.70;99.90;;;;;;6306945;22;19918;-74
2022/05/17 08:30:11;;;;;;;;;;;19.90;99.90;;;;;;6307375;22;19947;-77
2022/05/17 08:35:31;;;;;;;;;;;20.20;99.90;;;;;;6305897;22;20368;-78
2022/05/17 08:37:57;;;;;;;;;;;20.40;99.90;;;;;;6304194;22;19910;-80
2022/05/17 08:40:26;;;;;;;;;;;20.60;99.90;;;;;;6305992;22;19923;-75
2022/05/17 08:42:58;;;;;;;;;;;20.70;99.90;;;;;;6303860;22;19910;-82
2022/05/17 08:45:31;;;;;;;;;;;20.70;99.90;;;;;;6305250;22;20230;-81
2022/05/17 08:47:57;;;;;;;;;;;20.50;99.90;;;;;;6306663;22;19914;-76
2022/05/17 08:50:25;;;;;;;;;;;20.50;99.90;;;;;;6306661;22;19925;-79
2022/05/17 08:52:53;;;;;;;;;;;20.50;99.90;;;;;;6302324;22;20580;-83
2022/05/17 08:55:27;;;;;;;;;;;20.50;99.90;;;;;;6305969;22;19921;-78
2022/05/17 08:57:54;;;;;;;;;;;20.50;99.90;;;;;;6304749;22;19918;-81
2022/05/17 09:00:22;;;;;;;;;;;20.60;99.90;;;;;;6305923;22;19954;-84
2022/05/17 09:02:59;;;;;;;;;;;20.80;99.90;;;;;;6276318;22;19922;-82
2022/05/17 09:05:36;;;;;;;;;;;21.00;99.90;;;;;;6305481;22;19919;-77
2022/05/17 09:08:07;;;;;;;;;;;21.20;99.90;;;;;;6304706;22;19926;-79
2022/05/17 09:10:34;;;;;;;;;;;21.30;99.90;;;;;;6304132;22;20380;-80
2022/05/17 09:13:04;;;;;;;;;;;21.50;99.90;;;;;;6302911;22;19942;-79
2022/05/17 09:15:29;;;;;;;;;;;21.60;99.90;;;;;;6302255;22;19917;-78
2022/05/17 09:17:57;;;;;;;;;;;21.70;99.90;;;;;;6305144;22;19986;-81
2022/05/17 09:20:28;;;;;;;;;;;21.80;99.90;;;;;;6278740;22;19914;-80
2022/05/17 09:22:54;;;;;;;;;;;21.80;99.90;;;;;;6302282;22;20291;-81
2022/05/17 09:25:22;;;;;;;;;;;21.70;99.90;;;;;;6305489;22;19915;-77
2022/05/17 09:27:49;;;;;;;;;;;21.50;99.90;;;;;;6305482;22;20802;-76
2022/05/17 09:30:27;;;;;;;;;;;21.30;99.90;;;;;;6303746;22;19914;-75
2022/05/17 09:33:03;;;;;;;;;;;21.10;99.90;;;;;;6304570;22;19915;-83
2022/05/17 09:35:29;;;;;;;;;;;21.20;99.90;;;;;;6303612;22;19989;-73
2022/05/17 09:37:59;;;;;;;;;;;21.50;99.90;;;;;;6305310;22;19961;-78
2022/05/17 09:40:28;;;;;;;;;;;21.80;99.90;;;;;;6304437;22;19922;-76
2022/05/17 09:42:56;;;;;;;;;;;21.80;99.90;;;;;;6302982;22;19911;-75
2022/05/17 09:45:36;;;;;;;;;;;21.80;99.90;;;;;;6303819;22;19915;-74
2022/05/17 09:48:04;;;;;;;;;;;21.60;99.90;;;;;;6303978;22;19976;-76
2022/05/17 09:53:21;;;;;;;;;;;21.40;99.90;;;;;;6304489;22;19915;-81
2022/05/17 09:55:56;;;;;;;;;;;21.50;99.90;;;;;;6304483;22;19984;-83
2022/05/17 09:58:27;;;;;;;;;;;21.60;99.90;;;;;;6305997;22;19925;-83
2022/05/17 10:00:54;;;;;;;;;;;21.70;99.90;;;;;;6305360;22;19915;-77
2022/05/17 10:03:31;;;;;;;;;;;21.80;99.90;;;;;;6302786;22;19915;-78
2022/05/17 10:06:02;;;;;;;;;;;21.70;99.90;;;;;;6303580;22;19919;-76
2022/05/17 10:08:56;;;;;;;;;;;21.60;99.90;;;;;;6304736;22;19972;-77
2022/05/17 10:11:23;;;;;;;;;;;21.40;99.90;;;;;;6304385;22;20021;-82
2022/05/17 10:13:51;;;;;;;;;;;21.20;99.90;;;;;;6277699;22;19919;-76
2022/05/17 10:16:36;;;;;;;;;;;21.40;99.90;;;;;;6303477;22;19918;-76
2022/05/17 10:19:04;;;;;;;;;;;21.90;99.90;;;;;;6304708;22;19921;-78
2022/05/17 10:21:49;;;;;;;;;;;22.20;99.90;;;;;;6303258;22;20065;-80
2022/05/17 10:24:17;;;;;;;;;;;22.40;99.90;;;;;;6305368;22;19922;-81
2022/05/17 10:26:47;;;;;;;;;;;22.40;99.90;;;;;;6304905;22;19922;-74
2022/05/17 10:29:15;;;;;;;;;;;22.40;99.90;;;;;;6304640;22;20286;-72
2022/05/17 10:31:46;;;;;;;;;;;22.50;99.90;;;;;;6301636;22;19921;-81
2022/05/17 10:34:18;;;;;;;;;;;22.30;99.90;;;;;;6304421;22;19915;-81
2022/05/17 10:36:46;;;;;;;;;;;22.10;99.90;;;;;;6302538;22;19950;-80
2022/05/17 10:39:26;;;;;;;;;;;22.10;99.90;;;;;;6305381;22;19942;-80
2022/05/17 10:41:51;;;;;;;;;;;22.10;99.90;;;;;;6301488;22;19936;-79
2022/05/17 10:44:19;;;;;;;;;;;22.10;99.90;;;;;;6305123;22;19915;-77
2022/05/17 10:46:48;;;;;;;;;;;22.10;99.90;;;;;;6303877;22;19919;-80
2022/05/17 10:49:23;;;;;;;;;;;22.10;99.90;;;;;;6304932;22;19975;-73
2022/05/17 10:52:07;;;;;;;;;;;22.20;99.90;;;;;;6301971;22;19914;-75
2022/05/17 10:54:32;;;;;;;;;;;22.20;99.90;;;;;;6304850;22;19922;-71
2022/05/17 10:57:10;;;;;;;;;;;22.30;99.90;;;;;;6303071;22;19914;-72
2022/05/17 10:59:40;;;;;;;;;;;22.20;99.90;;;;;;6277593;22;20058;-70
2022/05/17 11:02:18;;;;;;;;;;;22.30;99.90;;;;;;6302396;22;19923;-73
2022/05/17 11:05:13;;;;;;;;;;;22.60;99.90;;;;;;6303228;22;19919;-70
2022/05/17 11:07:50;;;;;;;;;;;22.70;99.90;;;;;;6295294;22;19925;-75
2022/05/17 11:10:38;;;;;;;;;;;22.80;99.90;;;;;;6303623;22;19922;-78
2022/05/17 11:13:03;;;;;;;;;;;22.90;99.90;;;;;;6275420;22;20447;-74
2022/05/17 11:15:35;;;;;;;;;;;22.90;99.90;;;;;;6305198;22;19985;-78
2022/05/17 11:18:21;;;;;;;;;;;22.90;99.90;;;;;;6303079;22;19925;-78
2022/05/17 11:20:52;;;;;;;;;;;23.10;99.90;;;;;;6304162;22;20079;-78
2022/05/17 11:23:31;;;;;;;;;;;23.20;99.90;;;;;;6303613;22;19941;-75
2022/05/17 11:26:23;;;;;;;;;;;23.40;99.90;;;;;;6305282;22;19922;-73
2022/05/17 11:28:49;;;;;;;;;;;23.30;99.90;;;;;;6306975;22;20434;-77
2022/05/17 11:31:20;;;;;;;;;;;23.20;99.90;;;;;;6306106;22;19919;-75
2022/05/17 11:33:46;;;;;;;;;;;23.10;99.90;;;;;;6306692;22;19929;-78
2022/05/17 11:36:16;;;;;;;;;;;23.00;99.90;;;;;;6307248;22;19982;-74
2022/05/17 11:38:51;;;;;;;;;;;23.10;99.90;;;;;;6305073;22;19922;-75
2022/05/17 11:41:34;;;;;;;;;;;23.50;99.90;;;;;;6305852;22;19919;-75
2022/05/17 11:44:02;;;;;;;;;;;23.90;99.90;;;;;;6307243;22;19938;-78
2022/05/17 11:46:28;;;;;;;;;;;24.10;99.90;;;;;;6307036;22;20377;-77
2022/05/17 11:49:14;;;;;;;;;;;24.20;99.90;;;;;;6307338;22;19956;-78
2022/05/17 11:51:59;;;;;;;;;;;24.40;99.90;;;;;;6283737;22;20251;-74
2022/05/17 11:54:40;;;;;;;;;;;24.60;99.90;;;;;;6306888;22;19915;-73
2022/05/17 11:57:08;;;;;;;;;;;24.90;98.50;;;;;;6307119;22;19929;-78
2022/05/17 11:59:34;;;;;;;;;;;25.20;99.90;;;;;;6306794;22;19919;-78
2022/05/17 12:02:05;;;;;;;;;;;25.40;97.90;;;;;;6305001;22;19961;-77
2022/05/17 12:04:31;;;;;;;;;;;25.50;93.40;;;;;;6307115;22;19961;-76
2022/05/17 12:06:58;;;;;;;;;;;25.40;96.50;;;;;;6307056;22;19915;-73
2022/05/17 12:09:24;;;;;;;;;;;25.10;95.90;;;;;;6305965;22;19919;-75
2022/05/17 12:12:09;;;;;;;;;;;24.90;95.80;;;;;;6303505;22;19919;-74
2022/05/17 12:14:53;;;;;;;;;;;24.90;94.50;;;;;;6307339;22;19914;-71
2022/05/17 12:17:34;;;;;;;;;;;24.50;94.60;;;;;;6305532;22;20359;-69
2022/05/17 12:20:21;;;;;;;;;;;24.00;99.90;;;;;;6277774;22;19922;-72
2022/05/17 12:23:00;;;;;;;;;;;23.80;99.90;;;;;;6304978;22;20301;-71
2022/05/17 12:25:46;;;;;;;;;;;23.60;99.90;;;;;;6306195;22;20006;-75
2022/05/17 12:28:18;;;;;;;;;;;23.60;99.90;;;;;;6182163;23;19923;-77
2022/05/17 12:31:00;;;;;;;;;;;23.70;96.80;;;;;;6181562;23;20007;-77
2022/05/17 12:33:27;;;;;;;;;;;23.70;99.90;;;;;;6181090;23;20039;-77
2022/05/17 12:35:56;;;;;;;;;;;23.70;98.20;;;;;;6182432;23;20330;-77
2022/05/17 12:44:05;;;;;;;;;;;23.60;99.90;;;;;;6181732;23;20393;-74
2022/05/17 12:46:31;;;;;;;;;;;23.80;99.90;;;;;;6158300;23;19927;-71
2022/05/17 12:48:58;;;;;;;;;;;24.10;99.90;;;;;;6182043;23;20044;-73
2022/05/17 12:51:25;;;;;;;;;;;24.10;93.90;;;;;;6179767;23;20743;-73
2022/05/17 12:53:51;;;;;;;;;;;24.00;97.40;;;;;;6181523;23;19938;-72
2022/05/17 12:56:20;;;;;;;;;;;24.30;99.90;;;;;;6181186;23;19924;-73
2022/05/17 12:58:52;;;;;;;;;;;24.60;95.10;;;;;;6181634;23;19936;-73
2022/05/17 13:01:22;;;;;;;;;;;24.80;95.40;;;;;;6179845;23;20428;-74
2022/05/17 13:03:48;;;;;;;;;;;25.10;96.10;;;;;;6156867;23;20001;-71
2022/05/17 13:06:14;;;;;;;;;;;25.20;87.00;;;;;;6292885;22;19991;-74
2022/05/17 13:08:40;;;;;;;;;;;25.40;83.60;;;;;;6304796;22;19915;-72
2022/05/17 13:11:24;;;;;;;;;;;25.50;74.80;;;;;;6302495;22;19986;-75
2022/05/17 13:13:57;;;;;;;;;;;25.50;76.00;;;;;;6306664;22;19998;-72
2022/05/17 13:16:25;;;;;;;;;;;25.40;90.60;;;;;;6277444;22;19990;-72
2022/05/17 13:18:58;;;;;;;;;;;25.40;92.10;;;;;;6280347;22;19921;-73
2022/05/17 13:21:42;;;;;;;;;;;25.40;83.70;;;;;;6303416;22;19938;-71
2022/05/17 13:24:27;;;;;;;;;;;25.50;84.00;;;;;;6279588;22;19949;-73
2022/05/17 13:26:57;;;;;;;;;;;25.40;90.30;;;;;;6278778;22;19915;-74
2022/05/17 13:29:28;;;;;;;;;;;25.10;83.30;;;;;;6304783;22;19918;-74
2022/05/17 13:32:23;;;;;;;;;;;24.80;71.30;;;;;;6304402;22;19915;-73
2022/05/17 13:35:24;;;;;;;;;;;24.70;75.40;;;;;;6304203;22;19937;-80
2022/05/17 13:37:56;;;;;;;;;;;24.90;90.90;;;;;;6131896;23;19996;-71
2022/05/17 13:40:42;;;;;;;;;;;25.10;86.70;;;;;;6131967;23;19916;-71
2022/05/17 13:43:21;;;;;;;;;;;25.40;84.70;;;;;;6178447;23;19932;-74
2022/05/17 13:46:05;;;;;;;;;;;25.70;88.40;;;;;;6130819;23;20321;-74
2022/05/17 13:48:31;;;;;;;;;;;26.00;82.40;;;;;;6155600;23;19927;-75
2022/05/17 13:50:58;;;;;;;;;;;26.00;95.00;;;;;;6154995;23;19923;-74
2022/05/17 13:53:30;;;;;;;;;;;25.90;95.40;;;;;;6132131;23;19986;-74
2022/05/17 13:55:57;;;;;;;;;;;25.90;95.40;;;;;;6181000;23;19924;-75
2022/05/17 13:58:22;;;;;;;;;;;25.90;94.60;;;;;;6130535;23;19917;-71
2022/05/17 14:01:06;;;;;;;;;;;26.00;93.10;;;;;;6155309;23;20009;-72
2022/05/17 14:03:32;;;;;;;;;;;26.10;99.70;;;;;;6154938;23;20048;-75
2022/05/17 14:05:59;;;;;;;;;;;26.00;95.80;;;;;;6130425;23;20458;-74
2022/05/17 14:14:01;;;;;;;;;;;25.90;96.40;;;;;;6262761;22;19937;-75
2022/05/17 14:16:30;;;;;;;;;;;26.10;97.90;;;;;;6303780;22;19919;-72
2022/05/17 14:19:04;;;;;;;;;;;26.10;96.30;;;;;;6278767;22;20555;-74
2022/05/17 14:21:30;;;;;;;;;;;26.00;97.50;;;;;;6276436;22;20339;-73
2022/05/17 14:23:55;;;;;;;;;;;25.60;96.60;;;;;;6302245;22;20394;-73
2022/05/17 14:26:22;;;;;;;;;;;25.60;92.00;;;;;;6303908;22;19919;-75
2022/05/17 14:28:48;;;;;;;;;;;25.60;95.40;;;;;;6277831;22;20358;-72
2022/05/17 14:31:16;;;;;;;;;;;25.60;90.90;;;;;;6276768;22;19958;-74
2022/05/17 14:33:41;;;;;;;;;;;25.80;99.00;;;;;;6301464;22;20218;-72
2022/05/17 14:36:13;;;;;;;;;;;25.80;96.70;;;;;;6305694;22;19961;-74
2022/05/17 14:38:43;;;;;;;;;;;25.80;98.80;;;;;;6278933;22;19950;-73
2022/05/17 14:41:09;;;;;;;;;;;26.00;99.90;;;;;;6277045;22;20324;-74
2022/05/17 14:43:50;;;;;;;;;;;26.10;99.50;;;;;;6279298;22;19988;-72
2022/05/17 14:46:31;;;;;;;;;;;26.20;99.20;;;;;;6277293;22;20138;-75
2022/05/17 14:52:15;;;;;;;;;;;26.40;94.20;;;;;;6184298;23;19947;-73